Time;durP1;ratioP1;P1;durP2;ratioP2;P2;SDS_P1;SDS_P2;PMS_P1;PMS_P2;Temp;Humidity;BMP_temperature;BMP_pressure;BME280_temperature;BME280_humidity;BME280_pressure;Samples;Min_cycle;Max_cycle;Signal;HPM_P1;HPM_P2
2023/06/09 00:01:58;;;;;;;16.23;8.32;;;;;;;;;;5065326;28;20108;-69
2023/06/09 00:04:26;;;;;;;19.30;7.97;;;;;;;;;;5066171;28;20364;-69
2023/06/09 00:06:52;;;;;;;15.80;7.03;;;;;;;;;;5065397;28;20037;-70
2023/06/09 00:09:21;;;;;;;14.38;6.28;;;;;;;;;;5065890;28;20668;-69
2023/06/09 00:11:48;;;;;;;19.00;7.03;;;;;;;;;;5064898;28;20044;-69
2023/06/09 00:14:15;;;;;;;18.60;6.80;;;;;;;;;;5064517;28;20052;-69
2023/06/09 00:16:45;;;;;;;18.15;6.82;;;;;;;;;;5064113;28;20037;-69
2023/06/09 00:19:12;;;;;;;14.15;7.22;;;;;;;;;;5064780;28;20056;-70
2023/06/09 00:21:38;;;;;;;13.38;6.13;;;;;;;;;;5064998;28;20091;-69
2023/06/09 00:24:04;;;;;;;22.35;8.13;;;;;;;;;;5065623;28;20043;-69
2023/06/09 00:26:30;;;;;;;16.45;7.25;;;;;;;;;;5064912;28;20079;-69
2023/06/09 00:28:57;;;;;;;12.82;6.25;;;;;;;;;;5064767;28;20046;-69
2023/06/09 00:31:23;;;;;;;16.90;7.75;;;;;;;;;;5065450;28;21339;-69
2023/06/09 00:33:49;;;;;;;14.88;7.65;;;;;;;;;;5064792;28;20104;-70
2023/06/09 00:36:15;;;;;;;18.33;7.45;;;;;;;;;;5067192;28;20094;-70
2023/06/09 00:38:41;;;;;;;16.15;6.90;;;;;;;;;;5067578;28;20066;-69
2023/06/09 00:41:07;;;;;;;16.42;7.13;;;;;;;;;;5063511;28;20121;-69
2023/06/09 00:43:33;;;;;;;12.70;7.03;;;;;;;;;;5063550;28;20040;-69
2023/06/09 00:46:01;;;;;;;17.38;7.75;;;;;;;;;;5063958;28;20113;-69
2023/06/09 00:48:28;;;;;;;14.52;7.68;;;;;;;;;;5064281;28;20031;-68
2023/06/09 00:50:55;;;;;;;13.73;6.63;;;;;;;;;;5063714;28;20055;-69
2023/06/09 00:53:23;;;;;;;16.95;7.38;;;;;;;;;;5081151;28;20055;-69
2023/06/09 00:55:49;;;;;;;27.40;8.35;;;;;;;;;;5066029;28;20048;-69
2023/06/09 00:58:16;;;;;;;16.67;7.63;;;;;;;;;;5066795;28;20039;-69
2023/06/09 01:00:42;;;;;;;14.13;7.03;;;;;;;;;;5064305;28;20048;-69
2023/06/09 01:03:10;;;;;;;17.27;7.75;;;;;;;;;;5065841;28;20044;-69
2023/06/09 01:05:37;;;;;;;16.20;7.43;;;;;;;;;;5066850;28;20431;-69
2023/06/09 01:08:03;;;;;;;17.08;7.22;;;;;;;;;;5066128;28;20045;-69
2023/06/09 01:10:36;;;;;;;17.92;7.15;;;;;;;;;;5063823;28;20040;-69
2023/06/09 01:13:17;;;;;;;12.02;6.35;;;;;;;;;;5062488;28;20123;-69
2023/06/09 01:15:49;;;;;;;14.18;5.78;;;;;;;;;;5079091;28;20056;-69
2023/06/09 01:18:16;;;;;;;12.48;7.00;;;;;;;;;;5065648;28;20072;-69
2023/06/09 01:20:45;;;;;;;10.73;6.15;;;;;;;;;;5063843;28;20033;-69
2023/06/09 01:23:26;;;;;;;16.80;7.45;;;;;;;;;;5064393;28;20036;-69
2023/06/09 01:25:52;;;;;;;11.65;6.82;;;;;;;;;;5064381;28;20090;-69
2023/06/09 01:28:23;;;;;;;12.63;6.15;;;;;;;;;;5081531;28;20483;-69
2023/06/09 01:30:51;;;;;;;16.85;6.57;;;;;;;;;;5062966;28;20429;-69
2023/06/09 01:33:21;;;;;;;13.85;6.78;;;;;;;;;;5067018;28;20389;-69
2023/06/09 01:35:48;;;;;;;21.60;7.18;;;;;;;;;;5069849;28;20047;-69
2023/06/09 01:38:15;;;;;;;20.25;7.85;;;;;;;;;;5066763;28;20036;-69
2023/06/09 01:40:43;;;;;;;17.60;7.40;;;;;;;;;;5067341;28;20036;-69
2023/06/09 01:43:09;;;;;;;18.67;6.68;;;;;;;;;;5067307;28;20114;-70
2023/06/09 01:45:35;;;;;;;22.55;7.68;;;;;;;;;;5067013;28;20140;-69
2023/06/09 01:48:08;;;;;;;13.80;6.43;;;;;;;;;;5067423;28;20072;-69
2023/06/09 01:50:41;;;;;;;10.85;5.38;;;;;;;;;;5066864;28;20058;-69
2023/06/09 01:53:14;;;;;;;18.13;6.95;;;;;;;;;;5068853;28;20144;-69
2023/06/09 01:55:45;;;;;;;10.60;7.10;;;;;;;;;;5067671;28;20036;-69
2023/06/09 01:58:32;;;;;;;14.55;6.05;;;;;;;;;;5066464;28;20079;-69
2023/06/09 02:01:00;;;;;;;18.77;6.45;;;;;;;;;;5067028;28;20040;-69
2023/06/09 02:03:26;;;;;;;16.45;7.50;;;;;;;;;;5068035;28;20040;-69
2023/06/09 02:05:53;;;;;;;13.00;6.57;;;;;;;;;;5083595;28;20044;-69
2023/06/09 02:08:20;;;;;;;13.27;6.13;;;;;;;;;;5069253;28;20029;-69
2023/06/09 02:10:46;;;;;;;18.30;6.57;;;;;;;;;;5067808;28;20040;-69
2023/06/09 02:13:19;;;;;;;17.40;6.78;;;;;;;;;;5082817;28;20506;-69
2023/06/09 02:15:46;;;;;;;15.35;7.35;;;;;;;;;;5067669;28;20515;-69
2023/06/09 02:18:13;;;;;;;15.35;6.80;;;;;;;;;;5067517;28;20045;-69
2023/06/09 02:20:42;;;;;;;13.45;6.85;;;;;;;;;;5067299;28;20049;-69
2023/06/09 02:23:10;;;;;;;12.80;8.32;;;;;;;;;;5067910;28;20124;-69
2023/06/09 02:25:37;;;;;;;15.73;7.38;;;;;;;;;;5068156;28;20048;-69
2023/06/09 02:28:04;;;;;;;16.60;7.63;;;;;;;;;;5066079;28;20179;-69
2023/06/09 02:30:30;;;;;;;17.30;7.45;;;;;;;;;;5067642;28;20102;-69
2023/06/09 02:32:58;;;;;;;17.45;8.25;;;;;;;;;;5083967;28;20043;-69
2023/06/09 02:35:24;;;;;;;15.63;7.10;;;;;;;;;;5067041;28;20878;-69
2023/06/09 02:37:52;;;;;;;15.38;8.10;;;;;;;;;;5070573;28;20050;-69
2023/06/09 02:40:19;;;;;;;20.33;8.02;;;;;;;;;;5065785;28;20241;-68
2023/06/09 02:42:45;;;;;;;10.40;7.55;;;;;;;;;;5063252;28;20039;-68
2023/06/09 02:45:12;;;;;;;14.55;6.57;;;;;;;;;;5065891;28;20040;-69
2023/06/09 02:47:38;;;;;;;20.20;9.63;;;;;;;;;;5066421;28;21311;-69
2023/06/09 02:50:05;;;;;;;16.90;8.10;;;;;;;;;;5064311;28;20040;-69
2023/06/09 02:52:32;;;;;;;15.90;8.10;;;;;;;;;;5067427;28;20220;-70
2023/06/09 02:54:58;;;;;;;16.52;8.52;;;;;;;;;;5067727;28;20036;-69
2023/06/09 02:57:28;;;;;;;15.90;8.95;;;;;;;;;;5082334;28;20448;-69
2023/06/09 02:59:54;;;;;;;16.35;8.38;;;;;;;;;;5068283;28;20052;-69
2023/06/09 03:02:20;;;;;;;18.17;9.18;;;;;;;;;;5068331;28;20429;-68
2023/06/09 03:04:46;;;;;;;17.35;8.52;;;;;;;;;;5064008;28;20487;-69
2023/06/09 03:07:16;;;;;;;15.57;8.73;;;;;;;;;;5084400;28;20036;-69
2023/06/09 03:09:45;;;;;;;16.52;7.80;;;;;;;;;;5066449;28;20502;-69
2023/06/09 03:12:11;;;;;;;18.15;8.75;;;;;;;;;;5065756;28;20407;-69
2023/06/09 03:14:38;;;;;;;15.65;8.88;;;;;;;;;;5066641;28;20055;-68
2023/06/09 03:17:04;;;;;;;17.40;8.30;;;;;;;;;;5066081;28;20440;-69
2023/06/09 03:19:31;;;;;;;15.30;8.63;;;;;;;;;;5065554;28;20170;-70
2023/06/09 03:21:57;;;;;;;19.42;7.63;;;;;;;;;;5065664;28;20044;-69
2023/06/09 03:24:24;;;;;;;16.70;7.63;;;;;;;;;;5067906;28;20037;-69
2023/06/09 03:26:52;;;;;;;15.98;8.75;;;;;;;;;;5065646;28;20036;-69
2023/06/09 03:29:19;;;;;;;14.68;7.22;;;;;;;;;;5065631;28;20044;-69
2023/06/09 03:31:45;;;;;;;25.25;8.32;;;;;;;;;;5065576;28;20052;-69
2023/06/09 03:34:11;;;;;;;14.90;7.72;;;;;;;;;;5065049;28;20075;-69
2023/06/09 03:36:37;;;;;;;16.80;8.35;;;;;;;;;;5064036;28;20052;-69
2023/06/09 03:39:04;;;;;;;17.55;7.38;;;;;;;;;;5065404;28;20047;-69
2023/06/09 03:41:30;;;;;;;17.98;8.40;;;;;;;;;;5064787;28;20032;-69
2023/06/09 03:43:56;;;;;;;22.00;8.18;;;;;;;;;;5066039;28;20087;-69
2023/06/09 03:46:22;;;;;;;16.27;7.15;;;;;;;;;;5065932;28;20353;-69
2023/06/09 03:48:49;;;;;;;11.93;6.75;;;;;;;;;;5066252;28;20056;-69
2023/06/09 03:51:16;;;;;;;14.88;7.65;;;;;;;;;;5065261;28;20048;-69
2023/06/09 03:53:42;;;;;;;13.70;7.80;;;;;;;;;;5065132;28;20036;-69
2023/06/09 03:56:08;;;;;;;15.05;6.80;;;;;;;;;;5064335;28;20504;-69
2023/06/09 03:58:34;;;;;;;14.73;8.38;;;;;;;;;;5064859;28;20111;-69
2023/06/09 04:01:02;;;;;;;21.20;8.15;;;;;;;;;;5066563;28;20037;-69
2023/06/09 04:03:28;;;;;;;16.08;7.30;;;;;;;;;;5065385;28;20060;-69
2023/06/09 04:05:54;;;;;;;23.08;8.30;;;;;;;;;;5064639;28;20131;-70
2023/06/09 04:08:20;;;;;;;15.20;7.32;;;;;;;;;;5064154;28;20036;-69
2023/06/09 04:10:46;;;;;;;16.95;8.52;;;;;;;;;;5062889;28;20068;-70
2023/06/09 04:13:12;;;;;;;19.77;7.82;;;;;;;;;;5063394;28;20052;-69
2023/06/09 04:15:38;;;;;;;15.50;7.53;;;;;;;;;;5064231;28;20052;-69
2023/06/09 04:18:04;;;;;;;15.38;8.10;;;;;;;;;;5064728;28;21171;-69
2023/06/09 04:20:30;;;;;;;20.55;7.70;;;;;;;;;;5064289;28;20704;-69
2023/06/09 04:22:57;;;;;;;15.90;7.40;;;;;;;;;;5064394;28;20432;-69
2023/06/09 04:25:25;;;;;;;15.65;7.68;;;;;;;;;;5065198;28;20461;-69
2023/06/09 04:27:55;;;;;;;20.55;7.72;;;;;;;;;;5066335;28;20140;-69
2023/06/09 04:30:25;;;;;;;15.10;8.20;;;;;;;;;;5066984;28;20044;-69
2023/06/09 04:32:54;;;;;;;13.82;7.45;;;;;;;;;;5059858;28;20082;-69
2023/06/09 04:35:24;;;;;;;19.50;8.25;;;;;;;;;;5060813;28;20055;-68
2023/06/09 04:37:50;;;;;;;16.33;7.85;;;;;;;;;;5062615;28;20100;-70
2023/06/09 04:40:22;;;;;;;16.35;7.43;;;;;;;;;;5094757;28;20041;-70
2023/06/09 04:42:51;;;;;;;22.15;7.78;;;;;;;;;;5064213;28;20033;-69
2023/06/09 04:45:18;;;;;;;18.05;9.98;;;;;;;;;;5065449;28;20059;-70
2023/06/09 04:47:46;;;;;;;21.73;8.57;;;;;;;;;;5064917;28;20044;-69
2023/06/09 04:50:12;;;;;;;19.15;9.60;;;;;;;;;;5067634;28;20468;-69
2023/06/09 04:52:39;;;;;;;16.20;8.30;;;;;;;;;;5066184;28;20059;-69
2023/06/09 04:55:06;;;;;;;16.88;8.30;;;;;;;;;;5064527;28;20074;-69
2023/06/09 04:57:32;;;;;;;23.23;10.07;;;;;;;;;;5065983;28;20516;-69
2023/06/09 05:00:12;;;;;;;18.73;9.20;;;;;;;;;;5064971;28;20044;-69
2023/06/09 05:02:39;;;;;;;17.15;9.95;;;;;;;;;;5068258;28;20055;-70
2023/06/09 05:05:07;;;;;;;13.80;9.43;;;;;;;;;;5064479;28;20129;-69
2023/06/09 05:07:35;;;;;;;15.38;9.48;;;;;;;;;;5063855;28;20043;-69
2023/06/09 05:10:01;;;;;;;20.73;9.38;;;;;;;;;;5069006;28;20068;-68
2023/06/09 05:12:27;;;;;;;23.52;9.82;;;;;;;;;;5051758;28;20564;-68
2023/06/09 05:14:53;;;;;;;13.13;7.90;;;;;;;;;;5067995;28;20302;-68
2023/06/09 05:17:20;;;;;;;12.85;7.95;;;;;;;;;;5081216;28;20072;-68
2023/06/09 05:19:46;;;;;;;24.00;10.18;;;;;;;;;;5068246;28;20411;-68
2023/06/09 05:22:13;;;;;;;13.13;8.63;;;;;;;;;;5066636;28;20036;-69
2023/06/09 05:24:39;;;;;;;14.07;8.23;;;;;;;;;;5068197;28;20118;-68
2023/06/09 05:27:05;;;;;;;15.43;8.20;;;;;;;;;;5053648;28;20044;-69
2023/06/09 05:29:31;;;;;;;17.00;8.52;;;;;;;;;;5062844;28;20511;-68
2023/06/09 05:31:58;;;;;;;15.70;8.52;;;;;;;;;;5064200;28;20125;-69
2023/06/09 05:34:24;;;;;;;19.30;8.57;;;;;;;;;;5065002;28;20040;-69
2023/06/09 05:36:50;;;;;;;12.98;7.57;;;;;;;;;;5066021;28;20041;-69
2023/06/09 05:39:16;;;;;;;20.08;8.93;;;;;;;;;;5065446;28;20063;-68
2023/06/09 05:41:42;;;;;;;15.80;7.85;;;;;;;;;;5065343;28;20507;-68
2023/06/09 05:44:08;;;;;;;16.00;7.22;;;;;;;;;;5064923;28;20037;-68
2023/06/09 05:46:38;;;;;;;12.95;7.38;;;;;;;;;;5064033;28;20067;-68
2023/06/09 05:49:04;;;;;;;18.88;8.70;;;;;;;;;;5066133;28;20253;-68
2023/06/09 05:51:30;;;;;;;22.95;8.95;;;;;;;;;;5064990;28;20375;-68
2023/06/09 05:53:57;;;;;;;15.90;8.20;;;;;;;;;;5066801;28;20043;-68
2023/06/09 05:56:25;;;;;;;19.05;7.88;;;;;;;;;;5064490;28;20415;-69
2023/06/09 05:58:51;;;;;;;13.20;8.50;;;;;;;;;;5063442;28;20055;-68
2023/06/09 06:01:19;;;;;;;17.17;6.80;;;;;;;;;;5063857;28;20051;-69
2023/06/09 06:03:46;;;;;;;14.38;6.82;;;;;;;;;;5066229;28;20080;-69
2023/06/09 06:06:12;;;;;;;17.55;8.20;;;;;;;;;;5064337;28;20036;-68
2023/06/09 06:08:39;;;;;;;11.77;6.00;;;;;;;;;;5064604;28;20040;-69
2023/06/09 06:11:05;;;;;;;15.85;6.00;;;;;;;;;;5065079;28;20044;-69
2023/06/09 06:13:31;;;;;;;18.05;7.22;;;;;;;;;;5062913;28;20040;-68
2023/06/09 06:16:01;;;;;;;13.70;5.85;;;;;;;;;;5068322;28;20093;-69
2023/06/09 06:18:27;;;;;;;16.73;7.13;;;;;;;;;;5072468;28;20412;-68
2023/06/09 06:20:53;;;;;;;19.58;7.57;;;;;;;;;;5069868;28;20169;-68
2023/06/09 06:23:20;;;;;;;19.02;7.38;;;;;;;;;;5102327;27;20032;-68
2023/06/09 06:25:46;;;;;;;19.60;8.40;;;;;;;;;;5067693;28;20463;-68
2023/06/09 06:28:12;;;;;;;18.60;7.60;;;;;;;;;;5069708;28;20033;-69
2023/06/09 06:30:38;;;;;;;15.55;7.60;;;;;;;;;;5068746;28;20162;-69
2023/06/09 06:33:04;;;;;;;14.38;7.13;;;;;;;;;;5077496;28;20044;-68
2023/06/09 06:35:30;;;;;;;14.82;8.32;;;;;;;;;;5079094;28;20048;-68
2023/06/09 06:37:57;;;;;;;15.77;7.55;;;;;;;;;;5074020;28;20074;-68
2023/06/09 06:40:24;;;;;;;14.50;7.30;;;;;;;;;;5068821;28;20498;-68
2023/06/09 06:42:51;;;;;;;17.65;7.75;;;;;;;;;;5068786;28;20129;-68
2023/06/09 06:45:18;;;;;;;15.43;7.03;;;;;;;;;;5069515;28;20055;-69
2023/06/09 06:47:45;;;;;;;17.90;7.45;;;;;;;;;;5070033;28;20250;-69
2023/06/09 06:50:12;;;;;;;16.77;6.47;;;13.90;99.90;;;;;;5069139;28;20078;-69
2023/06/09 06:52:38;;;;;;;16.17;7.00;;;;;;;;;;5062997;28;20097;-68
2023/06/09 06:55:07;;;;;;;19.58;8.30;;;;;;;;;;5084319;28;20044;-68
2023/06/09 06:57:34;;;;;;;13.88;7.18;;;15.40;99.90;;;;;;5075792;28;20204;-68
2023/06/09 07:00:00;;;;;;;16.88;7.03;;;;;;;;;;5069212;28;20128;-69
2023/06/09 07:02:26;;;;;;;15.30;7.07;;;;;;;;;;5074483;28;20040;-69
2023/06/09 07:04:53;;;;;;;12.63;6.25;;;;;;;;;;5066323;28;20043;-68
2023/06/09 07:07:19;;;;;;;15.40;8.15;;;;;;;;;;5068779;28;20546;-69
2023/06/09 07:09:45;;;;;;;8.85;6.03;;;15.80;99.90;;;;;;5086021;28;20040;-69
2023/06/09 07:12:11;;;;;;;14.48;7.15;;;15.90;99.90;;;;;;5067167;28;20051;-69
2023/06/09 07:14:37;;;;;;;15.98;6.78;;;;;;;;;;5072815;28;20127;-69
2023/06/09 07:17:02;;;;;;;11.80;6.80;;;16.10;99.90;;;;;;5069500;28;20036;-69
2023/06/09 07:19:28;;;;;;;15.88;6.68;;;16.10;99.90;;;;;;5067985;28;20073;-68
2023/06/09 07:21:55;;;;;;;9.95;5.90;;;16.20;99.90;;;;;;5084637;28;20039;-69
2023/06/09 07:24:20;;;;;;;10.48;6.32;;;16.30;99.90;;;;;;5079735;28;20122;-68
2023/06/09 07:26:46;;;;;;;9.95;6.10;;;16.30;99.90;;;;;;5072874;28;20186;-68
2023/06/09 07:29:13;;;;;;;16.52;6.07;;;16.50;99.90;;;;;;5068814;28;20037;-68
2023/06/09 07:31:39;;;;;;;17.35;7.03;;;16.50;99.90;;;;;;5078534;28;20087;-68
2023/06/09 07:34:05;;;;;;;21.75;8.15;;;16.60;99.90;;;;;;5071295;28;20044;-68
2023/06/09 07:36:34;;;;;;;13.30;6.40;;;16.60;99.90;;;;;;5069819;28;20191;-68
2023/06/09 07:39:02;;;;;;;15.63;6.85;;;16.70;99.90;;;;;;5081553;28;20032;-68
2023/06/09 07:41:29;;;;;;;15.05;6.75;;;16.80;99.90;;;;;;5076352;28;20037;-68
2023/06/09 07:43:56;;;;;;;17.67;6.72;;;16.80;99.90;;;;;;5071402;28;20044;-68
2023/06/09 07:46:22;;;;;;;21.17;7.75;;;16.90;99.90;;;;;;5069099;28;20036;-68
2023/06/09 07:48:49;;;;;;;15.43;6.47;;;17.00;99.90;;;;;;5066652;28;20983;-68
2023/06/09 07:51:16;;;;;;;17.50;6.65;;;17.00;99.90;;;;;;5076760;28;20036;-68
2023/06/09 07:53:42;;;;;;;13.60;6.72;;;17.00;99.90;;;;;;5070451;28;20150;-68
2023/06/09 07:56:09;;;;;;;14.18;5.72;;;17.10;99.90;;;;;;5085679;28;20097;-69
2023/06/09 07:58:36;;;;;;;12.77;5.93;;;17.10;99.90;;;;;;5077108;28;20430;-69
2023/06/09 08:01:02;;;;;;;10.52;6.70;;;17.20;99.90;;;;;;5072113;28;20487;-67
2023/06/09 08:03:29;;;;;;;15.02;7.05;;;17.30;99.90;;;;;;5068943;28;20115;-67
2023/06/09 08:05:56;;;;;;;15.13;6.65;;;;;;;;;;5077165;28;20119;-67
2023/06/09 08:08:22;;;;;;;13.93;7.35;;;17.30;99.90;;;;;;5078809;28;20602;-67
2023/06/09 08:10:49;;;;;;;13.85;7.15;;;;;;;;;;5072993;28;20041;-67
2023/06/09 08:13:15;;;;;;;12.50;6.97;;;;;;;;;;5069913;28;20059;-67
2023/06/09 08:15:44;;;;;;;15.40;6.32;;;;;;;;;;5075949;28;20044;-67
2023/06/09 08:18:10;;;;;;;21.70;8.23;;;;;;;;;;5076181;28;20414;-67
2023/06/09 08:20:36;;;;;;;16.85;7.15;;;;;;;;;;5068279;28;20074;-68
2023/06/09 08:23:02;;;;;;;10.73;6.15;;;;;;;;;;5068512;28;20356;-67
2023/06/09 08:25:28;;;;;;;11.52;6.60;;;;;;;;;;5076205;28;20043;-67
2023/06/09 08:27:55;;;;;;;11.48;6.43;;;;;;;;;;5070691;28;20037;-66
2023/06/09 08:30:21;;;;;;;14.63;7.38;;;;;;;;;;5070147;28;20036;-67
2023/06/09 08:32:47;;;;;;;16.50;6.35;;;;;;;;;;5071919;28;20036;-67
2023/06/09 08:35:13;;;;;;;14.85;6.32;;;;;;;;;;5071620;28;20115;-69
2023/06/09 08:37:40;;;;;;;11.98;6.07;;;17.40;99.90;;;;;;5068197;28;20044;-68
2023/06/09 08:40:08;;;;;;;15.68;6.97;;;;;;;;;;5068548;28;20048;-68
2023/06/09 08:42:35;;;;;;;17.83;6.63;;;;;;;;;;5071245;28;20371;-68
2023/06/09 08:45:04;;;;;;;15.93;6.28;;;;;;;;;;5074170;28;20178;-68
2023/06/09 08:47:32;;;;;;;12.85;5.97;;;;;;;;;;5070409;28;20051;-68
2023/06/09 08:49:59;;;;;;;14.45;5.88;;;;;;;;;;5070876;28;20098;-68
2023/06/09 08:52:25;;;;;;;13.02;7.00;;;;;;;;;;5071695;28;20410;-68
2023/06/09 08:54:54;;;;;;;10.43;6.43;;;;;;;;;;5077689;28;20124;-68
2023/06/09 08:57:21;;;;;;;8.77;6.00;;;18.40;99.90;;;;;;5062706;28;20090;-68
2023/06/09 08:59:48;;;;;;;9.88;5.40;;;19.00;99.90;;;;;;5065539;28;20082;-67
2023/06/09 09:02:14;;;;;;;16.20;6.47;;;19.10;99.90;;;;;;5058603;28;20032;-68
2023/06/09 09:04:40;;;;;;;13.77;6.55;;;19.20;99.90;;;;;;5075034;28;20044;-69
2023/06/09 09:07:08;;;;;;;12.45;6.22;;;19.30;99.90;;;;;;5067650;28;20584;-69
2023/06/09 09:09:34;;;;;;;14.20;6.63;;;19.30;99.90;;;;;;5068491;28;20052;-69
2023/06/09 09:12:02;;;;;;;13.35;6.18;;;19.40;99.90;;;;;;5077692;28;20447;-69
2023/06/09 09:14:28;;;;;;;11.40;5.70;;;19.50;99.90;;;;;;5076880;28;20040;-69
2023/06/09 09:16:53;;;;;;;17.13;7.30;;;19.50;99.90;;;;;;5051744;28;20032;-68
2023/06/09 09:19:27;;;;;;;17.90;6.82;;;19.60;99.90;;;;;;5066907;28;20242;-69
2023/06/09 09:22:12;;;;;;;11.45;6.10;;;;;;;;;;5076205;28;20032;-67
2023/06/09 09:24:42;;;;;;;14.90;6.60;;;;;;;;;;5053239;28;20043;-68
2023/06/09 09:27:15;;;;;;;17.42;6.68;;;;;;;;;;5068039;28;20052;-68
2023/06/09 09:29:42;;;;;;;12.25;6.18;;;;;;;;;;5081997;28;20490;-68
2023/06/09 09:32:08;;;;;;;14.15;6.65;;;19.70;99.90;;;;;;5077815;28;20036;-68
2023/06/09 09:34:34;;;;;;;15.15;6.07;;;20.10;99.90;;;;;;5069453;28;20079;-68
2023/06/09 09:37:01;;;;;;;17.92;7.40;;;20.20;99.90;;;;;;5067871;28;20068;-68
2023/06/09 09:39:27;;;;;;;13.45;6.68;;;;;;;;;;5068232;28;20181;-68
2023/06/09 09:42:07;;;;;;;13.85;5.82;;;;;;;;;;5087212;28;20134;-68
2023/06/09 09:44:43;;;;;;;12.68;5.97;;;;;;;;;;5068384;28;20066;-68
2023/06/09 09:47:10;;;;;;;10.80;5.22;;;;;;;;;;5079108;28;20036;-68
2023/06/09 09:49:36;;;;;;;10.05;5.07;;;;;;;;;;5071478;28;20147;-68
2023/06/09 09:52:06;;;;;;;10.73;5.93;;;;;;;;;;5073181;28;20071;-67
2023/06/09 09:54:35;;;;;;;14.43;6.50;;;20.20;99.90;;;;;;5067061;28;20056;-67
2023/06/09 09:57:01;;;;;;;14.80;7.13;;;20.90;99.90;;;;;;5070165;28;20072;-67
2023/06/09 09:59:27;;;;;;;11.90;6.30;;;20.90;99.90;;;;;;5080518;28;20140;-67
2023/06/09 10:01:55;;;;;;;10.38;5.25;;;21.00;99.90;;;;;;5077887;28;20435;-67
2023/06/09 10:04:23;;;;;;;13.13;5.95;;;21.10;99.90;;;;;;5070286;28;20123;-67
2023/06/09 10:06:58;;;;;;;13.98;5.97;;;21.20;99.90;;;;;;5086720;28;20025;-67
2023/06/09 10:09:25;;;;;;;12.35;5.78;;;21.20;99.90;;;;;;5078185;28;20091;-67
2023/06/09 10:11:55;;;;;;;11.00;6.07;;;;;;;;;;5073457;28;20056;-67
2023/06/09 10:14:21;;;;;;;11.88;6.75;;;;;;;;;;5069706;28;20044;-67
2023/06/09 10:16:52;;;;;;;11.90;5.82;;;21.30;99.90;;;;;;5084586;28;20040;-67
2023/06/09 10:19:18;;;;;;;13.20;6.15;;;21.50;99.90;;;;;;5079831;28;20095;-68
2023/06/09 10:21:46;;;;;;;12.60;6.50;;;21.60;99.90;;;;;;5072814;28;20122;-67
2023/06/09 10:24:12;;;;;;;10.73;5.18;;;21.70;99.90;;;;;;5070087;28;20039;-68
2023/06/09 10:26:38;;;;;;;10.93;5.47;;;21.80;99.90;;;;;;5060106;28;20040;-67
2023/06/09 10:29:09;;;;;;;13.98;6.65;;;21.80;99.90;;;;;;5076294;28;20175;-67
2023/06/09 10:31:41;;;;;;;11.15;6.43;;;21.90;99.90;;;;;;5053845;28;20278;-68
2023/06/09 10:34:10;;;;;;;11.73;5.53;;;22.00;99.90;;;;;;5069401;28;20578;-68
2023/06/09 10:36:40;;;;;;;14.00;5.65;;;22.00;99.90;;;;;;5083540;28;20032;-68
2023/06/09 10:39:17;;;;;;;10.52;5.38;;;22.20;99.90;;;;;;5073100;28;20506;-68
2023/06/09 10:41:52;;;;;;;8.48;4.82;;;22.30;99.90;;;;;;5068082;28;20048;-67
2023/06/09 10:45:00;;;;;;;8.60;5.20;;;22.30;99.90;;;;;;5083536;28;20054;-68
2023/06/09 10:47:48;;;;;;;8.98;5.18;;;22.40;99.90;;;;;;5069238;28;20059;-67
2023/06/09 10:50:31;;;;;;;18.00;7.13;;;22.50;99.90;;;;;;5066267;28;20052;-68
2023/06/09 10:52:58;;;;;;;10.05;5.68;;;22.60;99.90;;;;;;5070640;28;20050;-67
2023/06/09 10:55:28;;;;;;;10.23;5.65;;;22.60;99.90;;;;;;5072036;28;20547;-68
2023/06/09 10:57:55;;;;;;;11.27;6.15;;;22.70;99.90;;;;;;5068571;28;20047;-68
2023/06/09 11:00:23;;;;;;;10.27;6.38;;;22.70;99.90;;;;;;5069171;28;20036;-69
2023/06/09 11:02:50;;;;;;;10.20;5.93;;;22.80;99.90;;;;;;5078130;28;20067;-68
2023/06/09 11:05:20;;;;;;;11.48;5.72;;;22.90;99.90;;;;;;5101219;27;20039;-68
2023/06/09 11:07:51;;;;;;;12.10;6.60;;;23.00;99.90;;;;;;5075178;28;21755;-68
2023/06/09 11:10:20;;;;;;;10.80;5.70;;;23.00;99.90;;;;;;5072196;28;20119;-68
2023/06/09 11:12:46;;;;;;;12.80;6.45;;;23.10;99.90;;;;;;5072455;28;20132;-68
2023/06/09 11:15:16;;;;;;;15.95;6.10;;;23.10;99.90;;;;;;5074707;28;20063;-68
2023/06/09 11:17:46;;;;;;;12.60;5.80;;;23.10;99.90;;;;;;5072646;28;20426;-68
2023/06/09 11:20:21;;;;;;;10.88;6.53;;;23.20;99.90;;;;;;5063481;28;20048;-68
2023/06/09 11:22:51;;;;;;;12.18;6.20;;;23.30;99.90;;;;;;5072725;28;20072;-69
2023/06/09 11:25:17;;;;;;;11.52;5.38;;;23.30;99.90;;;;;;5074577;28;20032;-70
2023/06/09 11:28:04;;;;;;;12.48;5.68;;;23.40;99.90;;;;;;5070928;28;20039;-68
2023/06/09 11:30:31;;;;;;;9.68;5.88;;;;;;;;;;5052881;28;20128;-69
2023/06/09 11:33:01;;;;;;;14.50;7.10;;;;;;;;;;5075992;28;20055;-69
2023/06/09 11:35:28;;;;;;;10.93;5.63;;;;;;;;;;5073168;28;20067;-69
2023/06/09 11:37:58;;;;;;;15.80;6.05;;;;;;;;;;5068761;28;20379;-68
2023/06/09 11:40:25;;;;;;;13.20;6.05;;;;;;;;;;5078070;28;20391;-68
2023/06/09 11:42:51;;;;;;;10.77;5.47;;;;;;;;;;5074593;28;20151;-69
2023/06/09 11:45:17;;;;;;;16.52;6.25;;;;;;;;;;5068144;28;20044;-68
2023/06/09 11:47:45;;;;;;;11.10;6.22;;;;;;;;;;5074265;28;20032;-68
2023/06/09 11:50:15;;;;;;;8.90;5.05;;;;;;;;;;5073392;28;20048;-69
2023/06/09 11:52:42;;;;;;;15.85;7.03;;;;;;;;;;5066031;28;20044;-69
2023/06/09 11:55:09;;;;;;;10.90;6.40;;;;;;;;;;5069459;28;20138;-68
2023/06/09 11:57:36;;;;;;;17.88;7.93;;;23.50;99.90;;;;;;5067397;28;20059;-68
2023/06/09 12:00:12;;;;;;;14.93;6.93;;;;;;;;;;5061993;28;20048;-69
2023/06/09 12:02:39;;;;;;;10.65;5.35;;;;;;;;;;5072925;28;20032;-68
2023/06/09 12:05:10;;;;;;;13.07;6.10;;;;;;;;;;5068371;28;20043;-68
2023/06/09 12:07:36;;;;;;;9.40;5.78;;;;;;;;;;5068630;28;20180;-68
2023/06/09 12:10:04;;;;;;;11.82;6.57;;;;;;;;;;5073207;28;20037;-68
2023/06/09 12:12:30;;;;;;;13.70;5.95;;;;;;;;;;5069963;28;20062;-68
2023/06/09 12:14:56;;;;;;;18.63;6.40;;;;;;;;;;5066868;28;20036;-68
2023/06/09 12:17:23;;;;;;;9.35;6.50;;;;;;;;;;5064918;28;20032;-69
2023/06/09 12:19:51;;;;;;;15.82;7.22;;;;;;;;;;5070183;28;20123;-69
2023/06/09 12:22:17;;;;;;;12.85;6.20;;;;;;;;;;5068341;28;20043;-69
2023/06/09 12:24:44;;;;;;;12.30;5.90;;;;;;;;;;5070725;28;20040;-68
2023/06/09 12:27:11;;;;;;;12.82;6.25;;;;;;;;;;5066925;28;20376;-68
2023/06/09 12:29:37;;;;;;;10.35;5.93;;;;;;;;;;5069091;28;20534;-68
2023/06/09 12:32:04;;;;;;;14.52;7.68;;;;;;;;;;5064405;28;20058;-69
2023/06/09 12:34:31;;;;;;;14.57;6.63;;;;;;;;;;5068178;28;20039;-68
2023/06/09 12:36:57;;;;;;;15.60;7.35;;;;;;;;;;5066791;28;20036;-68
2023/06/09 12:39:25;;;;;;;14.25;6.68;;;;;;;;;;5067980;28;20446;-68
2023/06/09 12:41:51;;;;;;;13.50;6.53;;;;;;;;;;5065789;28;20115;-68
2023/06/09 12:44:22;;;;;;;20.05;6.32;;;;;;;;;;5065825;28;20048;-68
2023/06/09 12:46:54;;;;;;;15.68;6.88;;;;;;;;;;5065849;28;20111;-68
2023/06/09 12:49:28;;;;;;;12.30;6.95;;;;;;;;;;5066872;28;20112;-68
2023/06/09 12:51:54;;;;;;;14.23;7.65;;;;;;;;;;5067263;28;20040;-68
2023/06/09 12:54:21;;;;;;;19.13;7.63;;;;;;;;;;5068031;28;20088;-68
2023/06/09 12:56:47;;;;;;;16.30;7.32;;;;;;;;;;5067220;28;20706;-68
2023/06/09 12:59:13;;;;;;;20.23;9.10;;;;;;;;;;5066406;28;20029;-68
2023/06/09 13:01:39;;;;;;;15.82;6.47;;;;;;;;;;5068862;28;20552;-67
2023/06/09 13:04:06;;;;;;;13.82;6.20;;;;;;;;;;5065863;28;20044;-68
2023/06/09 13:06:34;;;;;;;14.30;7.10;;;;;;;;;;5067085;28;20040;-68
2023/06/09 13:09:01;;;;;;;11.40;6.10;;;;;;;;;;5067811;28;20036;-68
2023/06/09 13:11:27;;;;;;;14.70;5.97;;;;;;;;;;5067168;28;20203;-68
2023/06/09 13:13:54;;;;;;;17.85;6.97;;;;;;;;;;5071057;28;20044;-68
2023/06/09 13:16:20;;;;;;;14.70;7.55;;;;;;;;;;5063239;28;20068;-67
2023/06/09 13:18:46;;;;;;;10.07;6.38;;;;;;;;;;5064197;28;20703;-68
2023/06/09 13:21:12;;;;;;;10.23;6.60;;;;;;;;;;5065160;28;20409;-69
2023/06/09 13:23:38;;;;;;;16.48;6.63;;;;;;;;;;5065865;28;20032;-67
2023/06/09 13:26:04;;;;;;;13.55;6.30;;;;;;;;;;5065431;28;20116;-68
2023/06/09 13:28:30;;;;;;;11.20;5.68;;;;;;;;;;5082111;28;20066;-68
2023/06/09 13:30:57;;;;;;;10.40;6.05;;;;;;;;;;5066458;28;20052;-68
2023/06/09 13:33:24;;;;;;;10.25;6.63;;;;;;;;;;5101290;27;20060;-69
2023/06/09 13:35:50;;;;;;;25.95;7.25;;;;;;;;;;5069678;28;20052;-68
2023/06/09 13:38:16;;;;;;;10.73;6.45;;;;;;;;;;5070179;28;20039;-68
2023/06/09 13:40:44;;;;;;;16.15;7.65;;;;;;;;;;5065807;28;20036;-68
2023/06/09 13:43:14;;;;;;;8.65;5.55;;;;;;;;;;5066737;28;20033;-68
2023/06/09 13:45:40;;;;;;;18.02;6.63;;;;;;;;;;5068108;28;20175;-68
2023/06/09 13:48:07;;;;;;;12.32;6.03;;;;;;;;;;5068179;28;20398;-68
2023/06/09 13:50:34;;;;;;;13.85;7.25;;;;;;;;;;5066623;28;20135;-68
2023/06/09 13:53:00;;;;;;;16.67;6.07;;;;;;;;;;5070544;28;20074;-69
2023/06/09 13:55:27;;;;;;;14.55;6.95;;;;;;;;;;5068623;28;20506;-68
2023/06/09 13:57:53;;;;;;;10.55;6.60;;;;;;;;;;5067960;28;20079;-68
2023/06/09 14:00:19;;;;;;;10.95;5.75;;;;;;;;;;5066978;28;20037;-68
2023/06/09 14:02:46;;;;;;;14.50;6.45;;;;;;;;;;5069328;28;20135;-68
2023/06/09 14:05:13;;;;;;;14.77;6.03;;;;;;;;;;5065818;28;20547;-69